Wedgeport, Canada
Current Conditions -  °F | °C
As of 8:00 AM on Thursday 29 Jan 2015 (Local Time) from CYQI Reporting Station
Few Clouds Few Clouds  
Wind Chill: 11°   Ceiling: Unl
Heat Index: 18°   Visibility: 15mi
Dew Point: 16°   Wind: 5mph
Humidity: 93%   Direction: 10°N
Pressure: 30.21"   Gusts: NA
Location:  43.73°N, 65.98°W
Report Text: CYQI 291200Z 01004KT 15SM FEW015 M08/M09 A3021 RMK SC2 PRESRR SLP231
Loading
Personal Weather Stations






























Interactive Weather Map New forecast layout! Learn more

10-Day Weather Forecast

Advertisements
Track Severe Weather on mobile